Time;durP1;ratioP1;P1;durP2;ratioP2;P2;SDS_P1;SDS_P2;PMS_P1;PMS_P2;Temp;Humidity;BMP_temperature;BMP_pressure;BME280_temperature;BME280_humidity;BME280_pressure;Samples;Min_cycle;Max_cycle;Signal;HPM_P1;HPM_P2
2021/12/29 00:02:14;;;;;;;7.72;1.10;;;;;;;5.85;79.33;92900.53;4802032;29;20053;-67
2021/12/29 00:04:41;;;;;;;10.23;1.85;;;;;;;5.91;79.77;92898.88;4802367;29;20051;-67
2021/12/29 00:07:10;;;;;;;7.77;1.60;;;;;;;5.92;79.27;92905.88;4832997;29;20062;-66
2021/12/29 00:09:40;;;;;;;6.70;1.27;;;;;;;5.88;79.52;92903.19;4852235;29;20493;-67
2021/12/29 00:12:08;;;;;;;5.93;1.30;;;;;;;5.96;79.83;92903.91;4838233;29;20045;-66
2021/12/29 00:14:36;;;;;;;8.65;2.40;;;;;;;5.90;79.39;92906.28;4838642;29;20046;-67
2021/12/29 00:17:04;;;;;;;5.60;1.30;;;;;;;5.88;79.07;92905.91;4838450;29;20105;-67
2021/12/29 00:19:31;;;;;;;6.90;1.20;;;;;;;5.96;78.83;92912.84;4838069;29;20050;-67
2021/12/29 00:21:57;;;;;;;6.88;1.33;;;;;;;6.00;78.75;92915.53;4838708;29;20042;-67
2021/12/29 00:24:24;;;;;;;7.35;1.70;;;;;;;5.97;77.56;92922.53;4836898;29;20052;-67
2021/12/29 00:26:51;;;;;;;6.97;1.30;;;;;;;5.98;77.63;92918.66;4838612;29;20038;-67
2021/12/29 00:29:18;;;;;;;5.78;1.40;;;;;;;6.03;77.05;92911.97;4838190;29;20449;-67
2021/12/29 00:31:45;;;;;;;7.00;1.30;;;;;;;6.05;77.00;92917.75;4838349;29;20054;-67
2021/12/29 00:34:12;;;;;;;7.35;1.30;;;;;;;6.00;77.11;92915.53;4807800;29;20043;-67
2021/12/29 00:36:39;;;;;;;9.05;1.65;;;;;;;5.98;77.94;92905.03;4802567;29;20049;-68
2021/12/29 00:39:06;;;;;;;11.02;2.20;;;;;;;6.00;78.25;92910.06;4801611;29;20065;-61
2021/12/29 00:41:33;;;;;;;10.75;1.50;;;;;;;5.98;77.79;92909.72;4802195;29;20050;-67
2021/12/29 00:43:59;;;;;;;7.60;1.10;;;;;;;5.88;77.57;92900.47;4802010;29;20111;-67
2021/12/29 00:46:31;;;;;;;7.85;2.00;;;;;;;5.90;77.80;92913.69;4814630;29;20463;-68
2021/12/29 00:48:59;;;;;;;6.35;1.67;;;;;;;5.86;77.89;92921.13;4802068;29;20069;-67
2021/12/29 00:51:25;;;;;;;6.63;1.23;;;;;;;5.96;77.37;92931.13;4801528;29;20053;-67
2021/12/29 00:53:53;;;;;;;7.47;1.40;;;;;;;5.97;77.47;92919.06;4801798;29;20063;-67
2021/12/29 00:56:19;;;;;;;6.63;1.30;;;;;;;5.74;78.77;92928.66;4801324;29;20069;-67
2021/12/29 00:58:46;;;;;;;7.60;1.50;;;;;;;5.85;78.96;92928.50;4801492;29;20496;-67
2021/12/29 01:01:14;;;;;;;4.93;1.40;;;;;;;5.81;78.51;92930.50;4804584;29;20058;-67
2021/12/29 01:03:43;;;;;;;7.50;1.10;;;;;;;5.88;78.07;92944.03;4805530;29;20043;-67
2021/12/29 01:06:10;;;;;;;4.68;1.00;;;;;;;5.95;78.49;92951.38;4821222;29;20060;-66
2021/12/29 01:08:37;;;;;;;6.57;1.60;;;;;;;5.88;78.00;92954.94;4841847;29;20408;-67
2021/12/29 01:11:05;;;;;;;8.38;1.20;;;;;;;5.89;78.38;92961.16;4841548;29;20046;-67
2021/12/29 01:13:34;;;;;;;6.53;1.40;;;;;;;5.92;78.11;92968.50;4841235;29;20098;-67
2021/12/29 01:18:38;;;;;;;6.95;1.13;;;;;;;5.85;79.23;92974.03;4840850;29;20639;-67
2021/12/29 01:21:06;;;;;;;6.10;1.30;;;;;;;5.81;79.55;92968.63;4841658;29;20049;-67
2021/12/29 01:23:32;;;;;;;5.93;1.25;;;;;;;5.83;79.65;92979.88;4840500;29;21703;-67
2021/12/29 01:25:59;;;;;;;6.30;1.10;;;;;;;5.78;79.90;92991.25;4841380;29;20484;-67
2021/12/29 01:28:26;;;;;;;5.18;1.00;;;;;;;5.64;79.88;92991.41;4841218;29;20056;-67
2021/12/29 01:30:53;;;;;;;6.10;0.98;;;;;;;5.84;79.50;92999.72;4840798;29;20048;-67
2021/12/29 01:33:21;;;;;;;4.00;1.30;;;;;;;5.85;79.80;93002.03;4840863;29;20046;-67
2021/12/29 01:35:47;;;;;;;5.63;1.10;;;;;;;5.81;80.36;93014.91;4840903;29;20050;-67
2021/12/29 01:38:15;;;;;;;5.00;1.02;;;;;;;5.76;80.15;93018.09;4840738;29;20072;-66
2021/12/29 01:40:41;;;;;;;4.32;0.85;;;;;;;5.78;80.57;93027.41;4855288;29;20038;-67
2021/12/29 01:43:09;;;;;;;7.78;1.33;;;;;;;5.69;81.28;93035.25;4840462;29;20102;-66
2021/12/29 01:45:36;;;;;;;4.97;1.30;;;;;;;5.66;81.82;93029.88;4839846;29;20050;-67
2021/12/29 01:48:04;;;;;;;4.55;0.80;;;;;;;5.68;81.67;93020.13;4839642;29;20048;-67
2021/12/29 01:50:32;;;;;;;5.25;0.90;;;;;;;5.67;82.25;93024.00;4840678;29;20041;-67
2021/12/29 01:53:07;;;;;;;3.95;0.85;;;;;;;5.71;81.80;93023.97;4840683;29;20050;-67
2021/12/29 01:55:35;;;;;;;5.05;0.90;;;;;;;5.64;82.56;93024.06;4840167;29;20757;-67
2021/12/29 01:58:02;;;;;;;4.80;1.10;;;;;;;5.57;83.45;93019.47;4840516;29;20496;-67
2021/12/29 02:00:31;;;;;;;7.72;1.00;;;;;;;5.39;84.47;93015.00;4840718;29;20042;-66
2021/12/29 02:02:59;;;;;;;6.97;1.20;;;;;;;5.39;84.24;93027.81;4840764;29;20068;-67
2021/12/29 02:05:26;;;;;;;3.33;0.90;;;;;;;5.50;83.47;93019.56;4840259;29;20067;-67
2021/12/29 02:07:52;;;;;;;4.78;1.10;;;;;;;5.46;83.79;93018.81;4840387;29;20052;-67
2021/12/29 02:10:22;;;;;;;2.53;0.63;;;;;;;5.40;83.92;93027.41;4840003;29;20050;-67
2021/12/29 02:12:49;;;;;;;5.70;0.90;;;;;;;5.47;83.88;93045.59;4840537;29;20068;-67
2021/12/29 02:15:16;;;;;;;3.58;0.77;;;;;;;5.52;83.37;93049.84;4840407;29;20048;-66
2021/12/29 02:17:43;;;;;;;4.75;1.00;;;;;;;5.47;84.64;93063.88;4840385;29;20068;-67
2021/12/29 02:20:11;;;;;;;8.98;1.65;;;;;;;5.53;84.01;93076.66;4839908;29;20042;-66
2021/12/29 02:22:50;;;;;;;2.63;0.80;;;;;;;5.49;83.75;93069.69;4840431;29;20049;-67
2021/12/29 02:27:46;;;;;;;4.78;0.80;;;;;;;5.43;85.39;93063.91;4840413;29;20062;-67
2021/12/29 02:30:14;;;;;;;3.92;0.80;;;;;;;5.52;84.32;93066.94;4839768;29;20054;-67
2021/12/29 02:32:42;;;;;;;5.22;1.00;;;;;;;5.60;84.49;93068.41;4840554;29;20041;-67
2021/12/29 02:35:14;;;;;;;5.47;1.10;;;;;;;5.56;85.11;93078.56;4839419;29;20060;-67
2021/12/29 02:37:40;;;;;;;4.13;0.85;;;;;;;5.35;85.40;93076.03;4840135;29;20098;-67
2021/12/29 02:40:09;;;;;;;5.18;0.93;;;;;;;5.52;85.05;93086.00;4837139;29;20054;-66
2021/12/29 02:42:40;;;;;;;4.65;1.10;;;;;;;5.54;85.30;93091.03;4816843;29;20050;-67
2021/12/29 02:45:20;;;;;;;4.70;0.90;;;;;;;5.59;85.58;93091.38;4802889;29;20043;-66
2021/12/29 02:47:47;;;;;;;5.93;1.10;;;;;;;5.49;86.19;93094.94;4803864;29;20458;-67
2021/12/29 02:50:17;;;;;;;4.35;0.80;;;;;;;5.51;85.89;93097.28;4803239;29;20049;-66
2021/12/29 02:52:46;;;;;;;13.85;5.55;;;;;;;5.55;85.64;93093.38;4803526;29;20450;-67
2021/12/29 02:55:14;;;;;;;7.93;2.53;;;;;;;5.64;85.61;93095.59;4802898;29;20055;-67
2021/12/29 02:57:41;;;;;;;5.03;0.93;;;;;;;5.63;85.10;93102.22;4803295;29;20379;-67
2021/12/29 03:00:13;;;;;;;4.27;0.90;;;;;;;5.67;85.63;93096.75;4816498;29;20105;-66
2021/12/29 03:02:40;;;;;;;3.90;0.82;;;;;;;5.65;85.18;93099.84;4803563;29;20046;-67
2021/12/29 03:05:08;;;;;;;5.35;0.82;;;;;;;5.53;85.74;93087.56;4803212;29;20057;-66
2021/12/29 03:07:35;;;;;;;4.47;0.85;;;;;;;5.48;85.85;93098.88;4840033;29;20046;-67
2021/12/29 03:10:02;;;;;;;4.85;0.90;;;;;;;5.37;87.05;93095.47;4839615;29;20042;-67
2021/12/29 03:12:29;;;;;;;4.63;0.60;;;;;;;5.36;87.13;93099.38;4839349;29;20054;-66
2021/12/29 03:14:58;;;;;;;2.25;0.70;;;;;;;5.34;86.91;93109.88;4839386;29;20066;-67
2021/12/29 03:17:25;;;;;;;4.53;0.93;;;;;;;5.44;86.83;93106.28;4838865;29;20392;-66
2021/12/29 03:19:51;;;;;;;3.95;1.15;;;;;;;5.39;86.80;93112.94;4839331;29;20225;-67
2021/12/29 03:22:19;;;;;;;5.38;1.40;;;;;;;5.42;86.84;93121.47;4838589;29;20046;-66
2021/12/29 03:24:45;;;;;;;5.27;1.00;;;;;;;5.49;86.85;93124.13;4839421;29;20052;-67
2021/12/29 03:27:12;;;;;;;5.05;1.10;;;;;;;5.54;85.95;93129.16;4838538;29;20044;-66
2021/12/29 03:29:39;;;;;;;7.25;2.45;;;;;;;5.52;85.67;93126.81;4839396;29;20038;-67
2021/12/29 03:32:09;;;;;;;4.43;1.20;;;;;;;5.56;85.54;93127.56;4838919;29;20050;-67
2021/12/29 03:34:35;;;;;;;3.38;0.80;;;;;;;5.65;85.27;93132.53;4838558;29;20743;-68
2021/12/29 03:37:03;;;;;;;4.23;0.80;;;;;;;5.63;85.19;93131.38;4838814;29;20061;-67
2021/12/29 03:39:37;;;;;;;3.88;0.90;;;;;;;5.47;85.22;93137.34;4838851;29;20073;-67
2021/12/29 03:42:06;;;;;;;5.63;2.60;;;;;;;5.65;84.82;93148.84;4812763;29;20486;-67
2021/12/29 03:44:33;;;;;;;5.95;1.48;;;;;;;5.64;85.34;93143.84;4800905;29;20473;-67
2021/12/29 03:47:00;;;;;;;3.17;0.90;;;;;;;5.65;84.45;93154.31;4802610;29;20055;-67
2021/12/29 03:49:27;;;;;;;3.53;0.80;;;;;;;5.57;85.11;93140.00;4802397;29;20107;-67
2021/12/29 03:51:53;;;;;;;4.80;0.90;;;;;;;5.63;84.86;93143.03;4802598;29;20183;-67
2021/12/29 03:54:22;;;;;;;3.97;0.80;;;;;;;5.64;84.67;93149.28;4801923;29;20062;-67
2021/12/29 03:56:48;;;;;;;5.30;1.42;;;;;;;5.67;84.75;93146.50;4802590;29;20408;-68
2021/12/29 03:59:16;;;;;;;5.65;2.15;;;;;;;5.78;84.66;93144.47;4815780;29;20047;-67
2021/12/29 04:01:44;;;;;;;4.23;0.83;;;;;;;5.63;84.69;93140.31;4802638;29;20057;-67
2021/12/29 04:04:11;;;;;;;3.15;0.70;;;;;;;5.64;84.69;93146.56;4802028;29;20431;-66
2021/12/29 04:06:37;;;;;;;4.05;1.00;;;;;;;5.68;84.81;93145.34;4825780;29;20048;-67
2021/12/29 04:09:05;;;;;;;5.22;0.60;;;;;;;5.57;85.23;93140.00;4838691;29;20068;-67
2021/12/29 04:11:31;;;;;;;5.75;0.82;;;;;;;5.52;85.87;93137.72;4838014;29;21713;-67
2021/12/29 04:13:58;;;;;;;4.50;0.90;;;;;;;5.55;85.34;93145.09;4837305;29;20058;-67
2021/12/29 04:16:25;;;;;;;2.90;1.00;;;;;;;5.64;85.29;93154.72;4838221;29;20076;-67
2021/12/29 04:19:06;;;;;;;2.90;0.65;;;;;;;5.55;85.43;93142.34;4838930;29;20046;-67
2021/12/29 04:21:35;;;;;;;2.90;0.52;;;;;;;5.65;85.32;93148.09;4837815;29;20571;-66
2021/12/29 04:24:04;;;;;;;3.20;0.80;;;;;;;5.66;85.58;93150.41;4838207;29;20045;-67
2021/12/29 04:26:33;;;;;;;3.97;0.90;;;;;;;5.70;85.25;93143.00;4838426;29;20064;-67
2021/12/29 04:29:00;;;;;;;4.00;0.63;;;;;;;5.74;85.19;93151.13;4838531;29;20043;-67
2021/12/29 04:31:26;;;;;;;3.50;0.93;;;;;;;5.65;85.40;93153.53;4838121;29;20060;-67
2021/12/29 04:33:53;;;;;;;3.00;0.60;;;;;;;5.57;85.33;93150.91;4838792;29;20046;-67
2021/12/29 04:36:24;;;;;;;3.72;0.90;;;;;;;5.59;85.24;93159.44;4841841;29;20511;-67
2021/12/29 04:38:53;;;;;;;4.30;0.83;;;;;;;5.52;85.59;93158.72;4842477;29;20053;-67
2021/12/29 04:41:21;;;;;;;2.35;0.80;;;;;;;5.59;85.59;93173.03;4842666;29;20113;-68
2021/12/29 04:43:48;;;;;;;4.80;0.88;;;;;;;5.51;85.57;93176.19;4843063;29;20097;-68
2021/12/29 04:46:16;;;;;;;4.10;0.55;;;;;;;5.43;85.42;93175.47;4842184;29;20053;-68
2021/12/29 04:48:58;;;;;;;3.75;0.80;;;;;;;5.59;85.07;93181.22;4842338;29;20062;-67
2021/12/29 04:51:33;;;;;;;3.97;0.60;;;;;;;5.70;84.54;93181.09;4841830;29;20042;-66
2021/12/29 04:54:01;;;;;;;3.08;0.85;;;;;;;5.68;84.60;93186.19;4841678;29;20046;-67
2021/12/29 04:56:28;;;;;;;3.67;0.93;;;;;;;5.54;85.28;93184.34;4841704;29;20046;-67
2021/12/29 04:58:55;;;;;;;4.43;0.80;;;;;;;5.42;86.05;93192.22;4842302;29;20050;-67
2021/12/29 05:01:22;;;;;;;2.75;0.70;;;;;;;5.53;85.29;93190.97;4841502;29;20058;-67
2021/12/29 05:03:50;;;;;;;3.20;0.60;;;;;;;5.59;84.76;93188.56;4819924;29;20416;-68
2021/12/29 05:08:49;;;;;;;4.38;0.90;;;;;;;5.58;85.16;93190.53;4841680;29;20045;-67
2021/12/29 05:11:16;;;;;;;3.40;0.90;;;;;;;5.58;84.31;93204.13;4841038;29;20057;-66
2021/12/29 05:13:44;;;;;;;2.90;0.80;;;;;;;5.59;84.93;93197.53;4841683;29;20074;-67
2021/12/29 05:16:12;;;;;;;4.77;0.60;;;;;;;5.65;84.54;93202.53;4840912;29;20034;-66
2021/12/29 05:18:39;;;;;;;4.75;0.60;;;;;;;5.63;85.00;93202.94;4841611;29;20451;-67
2021/12/29 05:21:07;;;;;;;4.55;0.70;;;;;;;5.62;85.20;93204.13;4840251;29;20045;-67
2021/12/29 05:23:35;;;;;;;2.88;0.55;;;;;;;5.59;84.87;93197.53;4840599;29;20916;-67
2021/12/29 05:26:02;;;;;;;3.72;0.82;;;;;;;5.60;85.29;93204.50;4841185;29;20049;-67
2021/12/29 05:28:29;;;;;;;3.17;0.50;;;;;;;5.64;85.16;93204.50;4841255;29;20050;-68
2021/12/29 05:30:55;;;;;;;3.80;0.70;;;;;;;5.62;85.20;93201.41;4841283;29;20049;-67
2021/12/29 05:33:22;;;;;;;3.58;0.60;;;;;;;5.69;84.71;93209.50;4841084;29;20042;-68
2021/12/29 05:35:49;;;;;;;3.15;0.70;;;;;;;5.64;85.09;93204.50;4842077;29;20072;-68
2021/12/29 05:38:16;;;;;;;3.00;0.80;;;;;;;5.63;85.00;93211.09;4841204;29;20046;-68
2021/12/29 05:40:43;;;;;;;3.07;0.80;;;;;;;5.68;85.04;93210.69;4842077;29;20060;-68
2021/12/29 05:43:10;;;;;;;2.90;0.70;;;;;;;5.65;85.30;93221.59;4840806;29;20061;-67
2021/12/29 05:45:37;;;;;;;2.95;0.68;;;;;;;5.62;85.27;93225.13;4839615;29;20077;-67
2021/12/29 05:48:04;;;;;;;1.73;0.47;;;;;;;5.64;84.95;93225.50;4840906;29;20050;-67
2021/12/29 05:50:31;;;;;;;2.63;0.52;;;;;;;5.67;85.03;93230.91;4840485;29;20929;-66
2021/12/29 05:52:59;;;;;;;2.93;0.60;;;;;;;5.64;85.13;93236.38;4840892;29;20045;-67
2021/12/29 05:55:27;;;;;;;4.25;0.52;;;;;;;5.63;85.00;93235.59;4839172;29;20145;-67
2021/12/29 05:57:54;;;;;;;3.30;1.05;;;;;;;5.71;84.62;93234.34;4854781;29;20054;-67
2021/12/29 06:00:22;;;;;;;5.68;1.30;;;;;;;5.72;84.81;93235.91;4840131;29;20061;-67
2021/12/29 06:02:50;;;;;;;4.70;1.25;;;;;;;5.60;85.11;93231.72;4840951;29;20440;-67
2021/12/29 06:05:18;;;;;;;1.77;0.50;;;;;;;5.56;85.84;93241.88;4840150;29;20416;-66
2021/12/29 06:07:45;;;;;;;3.55;1.05;;;;;;;5.56;85.20;93241.09;4841121;29;20050;-67
2021/12/29 06:10:12;;;;;;;2.78;0.80;;;;;;;5.50;86.15;93235.31;4839081;29;20050;-66
2021/12/29 06:12:40;;;;;;;2.85;0.80;;;;;;;5.54;85.91;93238.00;4840789;29;20054;-67
2021/12/29 06:15:08;;;;;;;2.47;1.00;;;;;;;5.52;85.94;93240.34;4839758;29;20076;-66
2021/12/29 06:17:36;;;;;;;2.73;0.80;;;;;;;5.50;85.96;93246.19;4840516;29;20686;-67
2021/12/29 06:20:05;;;;;;;3.40;0.70;;;;;;;5.54;85.74;93233.34;4840500;29;20038;-67
2021/12/29 06:22:32;;;;;;;1.50;0.50;;;;;;;5.45;85.81;93232.22;4840131;29;21138;-67
2021/12/29 06:24:58;;;;;;;3.15;0.80;;;;;;;5.47;85.83;93241.53;4840547;29;20038;-67
2021/12/29 06:27:25;;;;;;;3.63;0.88;;;;;;;5.44;86.11;93239.63;4840047;29;20046;-66
2021/12/29 06:29:52;;;;;;;3.27;0.77;;;;;;;5.44;86.24;93245.06;4840544;29;20105;-67
2021/12/29 06:32:19;;;;;;;3.00;0.80;;;;;;;5.47;86.47;93246.22;4839520;29;20045;-67
2021/12/29 06:34:46;;;;;;;3.20;0.73;;;;;;;5.52;86.31;93251.25;4838850;29;20092;-67
2021/12/29 06:37:13;;;;;;;4.18;0.63;;;;;;;5.43;86.57;93250.91;4839524;29;20145;-67
2021/12/29 06:39:41;;;;;;;3.38;0.90;;;;;;;5.36;87.21;93254.44;4840211;29;20496;-68
2021/12/29 06:42:08;;;;;;;4.67;0.93;;;;;;;5.37;87.30;93261.44;4839698;29;20050;-66
2021/12/29 06:44:36;;;;;;;4.05;1.00;;;;;;;5.37;87.01;93270.38;4840494;29;20038;-66
2021/12/29 06:47:03;;;;;;;5.68;1.50;;;;;;;5.39;87.33;93273.47;4838751;29;20052;-67
2021/12/29 06:49:30;;;;;;;3.55;1.00;;;;;;;5.40;87.00;93268.81;4839693;29;20072;-67
2021/12/29 06:51:58;;;;;;;3.15;0.82;;;;;;;5.34;87.56;93273.88;4839912;29;20050;-67
2021/12/29 06:54:24;;;;;;;4.00;0.90;;;;;;;5.40;86.99;93279.69;4839394;29;20041;-67
2021/12/29 06:56:51;;;;;;;3.75;0.80;;;;;;;5.34;87.31;93281.28;4839355;29;20050;-68
2021/12/29 06:59:18;;;;;;;3.67;1.05;;;;;;;5.34;87.27;93281.28;4839105;29;20052;-67
2021/12/29 07:01:47;;;;;;;3.28;0.80;;;;;;;5.27;87.63;93289.47;4816642;29;20408;-67
2021/12/29 07:04:14;;;;;;;5.35;1.20;;;;;;;5.26;87.57;93296.09;4812913;29;20394;-66
2021/12/29 07:06:41;;;;;;;3.57;0.80;;;;;;;5.28;87.30;93296.47;4833546;29;20052;-67
2021/12/29 07:09:08;;;;;;;5.85;3.75;;;;;;;5.27;87.22;93294.91;4838837;29;20050;-66
2021/12/29 07:11:36;;;;;;;5.93;2.55;;;;;;;5.22;87.71;93304.28;4838386;29;20050;-67
2021/12/29 07:14:05;;;;;;;3.85;1.35;;;;;;;5.22;87.65;93306.22;4853682;29;20050;-67
2021/12/29 07:16:32;;;;;;;4.68;1.80;;;;;;;5.15;88.08;93307.81;4838693;29;20676;-67
2021/12/29 07:18:59;;;;;;;5.53;1.30;;;;;;;5.19;87.80;93316.72;4839611;29;20065;-67
2021/12/29 07:21:25;;;;;;;2.97;0.98;;;;;;;5.18;87.56;93320.59;4838959;29;20491;-67
2021/12/29 07:23:54;;;;;;;7.88;3.03;;;;;;;5.26;87.85;93326.78;4853335;29;20038;-67
2021/12/29 07:26:25;;;;;;;12.38;4.15;;;;;;;5.18;87.89;93325.28;4838663;29;20061;-67
2021/12/29 07:28:52;;;;;;;9.13;3.47;;;;;;;5.32;87.84;93325.22;4839581;29;20046;-67
2021/12/29 07:31:20;;;;;;;4.10;1.00;;;;;;;5.36;86.80;93320.53;4838712;29;20500;-67
2021/12/29 07:34:02;;;;;;;3.97;0.95;;;;;;;5.40;86.52;93320.50;4839640;29;20041;-67
2021/12/29 07:36:30;;;;;;;4.45;0.90;;;;;;;5.54;86.08;93314.97;4838650;29;20046;-67
2021/12/29 07:38:57;;;;;;;3.03;0.80;;;;;;;5.59;85.36;93320.03;4839070;29;20156;-67
2021/12/29 07:41:24;;;;;;;4.32;1.30;;;;;;;5.60;85.52;93316.09;4838354;29;20053;-67
2021/12/29 07:43:51;;;;;;;5.80;1.17;;;;;;;5.61;85.10;93314.16;4839175;29;20049;-67
2021/12/29 07:46:19;;;;;;;6.35;1.60;;;;;;;5.39;86.64;93319.75;4838199;29;20049;-67
2021/12/29 07:48:46;;;;;;;5.93;1.60;;;;;;;5.53;86.36;93312.66;4839185;29;20050;-67
2021/12/29 07:51:15;;;;;;;4.55;2.00;;;;;;;5.63;85.85;93321.94;4838609;29;20042;-66
2021/12/29 07:53:42;;;;;;;4.50;1.30;;;;;;;5.53;86.50;93323.53;4839121;29;20049;-67
2021/12/29 07:56:09;;;;;;;5.17;1.20;;;;;;;5.78;85.81;93329.59;4838370;29;20048;-67
2021/12/29 07:58:36;;;;;;;5.95;1.50;;;;;;;5.84;85.49;93345.53;4838543;29;20510;-67
2021/12/29 08:01:03;;;;;;;8.50;1.65;;;;;;;5.80;84.78;93354.50;4839482;29;20045;-68
2021/12/29 08:03:30;;;;;;;10.45;1.85;;;;;;;5.69;85.20;93359.22;4810017;29;20057;-67
2021/12/29 08:05:57;;;;;;;8.50;1.90;;;;;;;5.82;85.07;93358.78;4815622;29;20042;-67
2021/12/29 08:08:24;;;;;;;9.73;2.70;;;;;;;5.91;84.89;93357.13;4838152;29;20057;-67
2021/12/29 08:10:51;;;;;;;10.90;2.85;;;;;;;5.82;85.17;93353.31;4838889;29;20470;-67
2021/12/29 08:13:17;;;;;;;5.72;1.83;;;;;;;5.82;85.48;93362.28;4836979;29;20050;-68
2021/12/29 08:15:44;;;;;;;6.88;2.40;;;;;;;5.83;85.79;93361.06;4838666;29;20081;-67
2021/12/29 08:18:11;;;;;;;5.93;1.55;;;;;;;5.77;85.56;93368.13;4838456;29;20048;-67
2021/12/29 08:20:38;;;;;;;7.20;1.50;;;;;;;5.79;85.34;93374.75;4838933;29;20046;-67
2021/12/29 08:23:06;;;;;;;6.55;1.77;;;;;;;5.74;85.67;93385.25;4838604;29;20048;-67
2021/12/29 08:25:34;;;;;;;7.95;2.50;;;;;;;5.80;85.90;93386.41;4827895;29;20342;-67
2021/12/29 08:28:01;;;;;;;7.03;1.90;;;;;;;5.91;85.22;93376.19;4838700;29;20060;-67
2021/12/29 08:30:28;;;;;;;14.23;7.95;;;;;;;5.93;85.08;93376.56;4838009;29;20068;-67
2021/12/29 08:32:55;;;;;;;17.70;6.97;;;;;;;5.99;84.69;93379.69;4838432;29;20046;-67
2021/12/29 08:35:23;;;;;;;11.75;5.35;;;;;;;6.01;84.90;93380.06;4838236;29;20050;-67
2021/12/29 08:37:50;;;;;;;18.10;10.07;;;;;;;6.05;84.70;93380.03;4838675;29;20074;-68
2021/12/29 08:40:17;;;;;;;15.38;6.40;;;;;;;6.08;84.99;93379.25;4837009;29;20038;-68
2021/12/29 08:42:49;;;;;;;11.13;3.65;;;;;;;6.10;84.91;93388.56;4839120;29;20046;-67
2021/12/29 08:45:21;;;;;;;8.93;3.13;;;;;;;5.99;85.01;93398.75;4837891;29;20061;-67
2021/12/29 08:47:48;;;;;;;8.15;2.95;;;;;;;5.95;85.02;93398.75;4838804;29;20054;-67
2021/12/29 08:50:16;;;;;;;9.35;2.40;;;;;;;5.91;85.53;93397.97;4837832;29;20046;-68
2021/12/29 08:52:43;;;;;;;16.75;6.93;;;;;;;5.90;85.58;93396.44;4838513;29;20046;-67
2021/12/29 08:55:12;;;;;;;8.43;3.35;;;;;;;5.99;84.96;93398.75;4838232;29;20046;-66
2021/12/29 08:57:40;;;;;;;14.10;7.63;;;;;;;6.02;84.97;93392.53;4838605;29;20065;-68
2021/12/29 09:00:10;;;;;;;30.73;17.25;;;;;;;6.12;84.58;93390.91;4838338;29;20681;-66
2021/12/29 09:02:37;;;;;;;14.73;7.50;;;;;;;6.10;84.46;93388.56;4838943;29;20050;-68
2021/12/29 09:05:05;;;;;;;24.85;11.77;;;;;;;6.25;84.34;93388.47;4838287;29;20054;-68
2021/12/29 09:07:32;;;;;;;17.20;6.68;;;;;;;6.15;84.35;93388.13;4818228;29;20047;-67
2021/12/29 09:10:00;;;;;;;13.20;5.30;;;;;;;6.27;83.88;93380.66;4820523;29;20670;-67
2021/12/29 09:12:27;;;;;;;14.30;5.38;;;;;;;6.20;83.87;93386.94;4818515;29;20058;-67
2021/12/29 09:14:53;;;;;;;12.35;4.30;;;;;;;6.20;84.91;93393.16;4820347;29;20046;-67
2021/12/29 09:17:20;;;;;;;7.97;1.90;;;;;;;6.20;85.01;93389.69;4819396;29;20066;-67
2021/12/29 09:19:47;;;;;;;7.18;1.92;;;;;;;6.17;84.96;93377.59;4820036;29;20114;-67
2021/12/29 09:22:14;;;;;;;6.10;2.00;;;;;;;6.22;84.10;93381.88;4822572;29;20046;-67
2021/12/29 09:24:46;;;;;;;7.40;2.05;;;;;;;6.25;84.63;93375.59;4823321;29;20051;-67
2021/12/29 09:27:16;;;;;;;9.82;1.58;;;;;;;6.20;84.91;93373.31;4822477;29;20058;-67
2021/12/29 09:29:43;;;;;;;5.20;1.30;;;;;;;6.23;84.97;93375.22;4823147;29;20050;-68
2021/12/29 09:32:11;;;;;;;5.82;1.63;;;;;;;6.34;84.57;93380.63;4831401;29;20052;-67
2021/12/29 09:34:38;;;;;;;7.03;1.80;;;;;;;6.34;83.66;93381.38;4816469;29;20064;-67
2021/12/29 09:37:05;;;;;;;6.47;1.83;;;;;;;6.40;84.45;93389.91;4805483;29;20047;-68
2021/12/29 09:39:33;;;;;;;8.00;2.58;;;;;;;6.49;84.49;93394.91;4804010;29;20246;-67
2021/12/29 09:42:00;;;;;;;9.00;2.80;;;;;;;6.64;84.12;93399.06;4805073;29;20045;-67
2021/12/29 09:44:27;;;;;;;8.57;1.75;;;;;;;6.60;83.10;93388.19;4804289;29;20412;-67
2021/12/29 09:46:54;;;;;;;8.20;2.10;;;;;;;6.60;83.28;93393.63;4805062;29;20039;-67
2021/12/29 09:49:22;;;;;;;6.55;1.80;;;;;;;6.65;82.94;93395.16;4804290;29;20050;-67
2021/12/29 09:51:50;;;;;;;10.63;2.40;;;;;;;6.72;82.46;93388.84;4804955;29;20045;-68
2021/12/29 09:54:18;;;;;;;13.02;2.95;;;;;;;6.68;82.47;93388.91;4803888;29;20138;-67
2021/12/29 09:56:44;;;;;;;10.00;3.05;;;;;;;6.77;81.86;93389.19;4804535;29;20099;-67
2021/12/29 09:59:11;;;;;;;10.83;1.90;;;;;;;6.71;82.03;93393.53;4803577;29;20047;-67
2021/12/29 10:01:38;;;;;;;8.48;2.05;;;;;;;6.68;82.07;93386.16;4804595;29;20408;-67
2021/12/29 10:04:05;;;;;;;9.93;2.63;;;;;;;6.62;82.12;93385.06;4804807;29;20103;-67
2021/12/29 10:06:32;;;;;;;14.23;3.72;;;;;;;6.75;82.38;93394.28;4825402;29;20042;-67
2021/12/29 10:09:10;;;;;;;14.35;3.25;;;;;;;6.74;81.97;93390.00;4840699;29;20052;-67
2021/12/29 10:11:37;;;;;;;7.33;2.30;;;;;;;6.77;81.75;93385.69;4840010;29;20779;-67
2021/12/29 10:14:09;;;;;;;8.63;2.40;;;;;;;6.81;81.52;93391.88;4840502;29;20046;-68
2021/12/29 10:16:37;;;;;;;14.70;3.92;;;;;;;6.75;82.05;93399.72;4839858;29;20326;-67
2021/12/29 10:19:12;;;;;;;14.15;3.45;;;;;;;6.74;81.83;93405.56;4840646;29;20492;-68
2021/12/29 10:21:47;;;;;;;10.18;1.90;;;;;;;6.68;82.12;93399.81;4839541;29;20352;-67
2021/12/29 10:24:18;;;;;;;9.43;2.40;;;;;;;6.68;82.53;93405.25;4839869;29;20050;-66
2021/12/29 10:26:48;;;;;;;12.75;2.65;;;;;;;6.67;81.48;93408.38;4840336;29;20262;-67
2021/12/29 10:29:19;;;;;;;11.68;3.30;;;;;;;6.74;82.06;93397.41;4839709;29;20045;-67
2021/12/29 10:31:49;;;;;;;12.57;3.30;;;;;;;6.73;81.34;93393.91;4839246;29;20046;-67
2021/12/29 10:34:23;;;;;;;11.10;2.90;;;;;;;6.77;81.63;93391.16;4818302;29;20055;-67
2021/12/29 10:37:04;;;;;;;12.53;2.40;;;;;;;6.64;81.93;93396.34;4819881;29;20461;-67
2021/12/29 10:39:36;;;;;;;10.20;2.13;;;;;;;6.59;81.80;93405.69;4819897;29;20054;-67
2021/12/29 10:42:09;;;;;;;11.25;2.78;;;;;;;6.57;82.68;93402.59;4821785;29;20054;-67
2021/12/29 10:44:43;;;;;;;14.32;3.00;;;;;;;6.51;83.33;93398.75;4821202;29;20450;-67
2021/12/29 10:47:31;;;;;;;8.60;2.33;;;;;;;6.46;84.25;93401.94;4821328;29;20133;-66
2021/12/29 10:50:15;;;;;;;11.77;2.43;;;;;;;6.35;84.56;93398.50;4820631;29;20046;-67
2021/12/29 10:52:53;;;;;;;10.32;2.78;;;;;;;6.33;84.74;93400.84;4821093;29;20679;-68
2021/12/29 10:55:31;;;;;;;11.18;3.35;;;;;;;6.34;85.05;93402.44;4821093;29;20579;-67
2021/12/29 10:58:06;;;;;;;16.60;4.78;;;;;;;6.21;85.16;93402.09;4821642;29;20412;-68
2021/12/29 11:00:56;;;;;;;25.42;6.65;;;;;;;6.26;84.55;93396.25;4820935;29;20054;-68
2021/12/29 11:03:25;;;;;;;11.07;2.70;;;;;;;6.28;84.07;93393.91;4819718;29;20058;-67
2021/12/29 11:05:58;;;;;;;9.30;2.53;;;;;;;6.29;83.92;93386.50;4827467;29;20054;-68
2021/12/29 11:08:33;;;;;;;9.75;2.70;;;;;;;6.35;83.97;93390.34;4839091;29;20052;-67
2021/12/29 11:11:06;;;;;;;7.90;2.08;;;;;;;6.32;82.68;93389.19;4839569;29;20050;-67
2021/12/29 11:13:33;;;;;;;9.95;3.05;;;;;;;6.30;84.00;93393.47;4838503;29;21793;-67
2021/12/29 11:16:03;;;;;;;8.47;2.60;;;;;;;6.20;83.89;93390.44;4839614;29;20050;-67
2021/12/29 11:18:48;;;;;;;7.60;2.30;;;;;;;6.28;83.90;93391.16;4837992;29;20046;-67
2021/12/29 11:21:30;;;;;;;5.95;2.58;;;;;;;6.19;83.89;93382.66;4839105;29;20056;-67
2021/12/29 11:24:11;;;;;;;8.23;2.20;;;;;;;6.11;84.24;93389.34;4839673;29;20075;-67
2021/12/29 11:26:38;;;;;;;8.73;2.50;;;;;;;6.12;84.30;93393.63;4838181;29;20918;-68
2021/12/29 11:29:10;;;;;;;8.63;2.73;;;;;;;6.05;84.32;93382.75;4839363;29;20058;-67
2021/12/29 11:31:42;;;;;;;6.18;1.88;;;;;;;5.95;84.37;93382.41;4838497;29;20803;-67
2021/12/29 11:34:24;;;;;;;5.32;1.50;;;;;;;6.00;84.19;93367.63;4809938;29;20061;-67
2021/12/29 11:37:13;;;;;;;7.65;3.53;;;;;;;5.94;85.18;93372.69;4802814;29;20039;-67
2021/12/29 11:39:42;;;;;;;9.77;4.50;;;;;;;6.00;84.84;93373.84;4801768;29;20713;-67
2021/12/29 11:42:10;;;;;;;7.07;3.03;;;;;;;6.03;85.28;93368.78;4802635;29;20049;-66
2021/12/29 11:44:38;;;;;;;7.97;2.63;;;;;;;5.98;84.65;93362.56;4802370;29;20046;-67
2021/12/29 11:47:07;;;;;;;5.82;2.72;;;;;;;5.93;85.72;93365.69;4802590;29;20077;-67
2021/12/29 11:49:34;;;;;;;6.78;2.53;;;;;;;5.93;85.51;93362.94;4815205;29;20519;-67
2021/12/29 11:52:16;;;;;;;4.18;1.77;;;;;;;5.87;85.86;93361.81;4803001;29;20046;-67
2021/12/29 11:54:46;;;;;;;8.73;3.33;;;;;;;5.95;86.23;93357.91;4801589;29;20825;-67
2021/12/29 11:57:23;;;;;;;6.95;2.28;;;;;;;5.96;86.27;93359.47;4802147;29;20042;-67